Latest Weather Observations for Nuriootpa

IDS60901

Issued at 9:41 pm CDT Monday 2 March 2015 (issued every 10 minutes, with the page automatically refreshed every 10 minutes)

About weather observations | Map of Adelaide area stations | Latest observations for Adelaide area | Other Formats
Station Details ID: 023373 Name: NURIOOTPA VITICULTURAL Lat: -34.48 Lon: 139.01 Height: 275.0 m
Data from the previous 72 hours. | See also: Recent months at Nuriootpa
Date/Time
CDT
Tmp

°C
App
Tmp
°C
Dew
Point
°C
Rel
Hum
%
Delta-T

°C
Wind Press
QNH
hPa
Press
MSL
hPa
Rain
since
9 am
mm
Dir
 
Spd
km/h
Gust
km/h
Spd
kts
Gust
kts
02/09:30pm 21.5 18.5 4.2 32 8.5 S 9 13 5 7 1016.0 1015.2 0.0
02/09:00pm 21.8 19.3 5.0 33 8.4 SSW 7 13 4 7 1015.9 1015.1 0.0
02/08:30pm 22.6 18.7 3.3 28 9.4 SW 13 19 7 10 1015.3 1014.5 0.0
02/08:00pm 23.1 19.7 3.9 28 9.5 SW 11 13 6 7 1014.8 1014.0 0.0
02/07:30pm 23.9 20.4 3.4 26 10.1 SW 11 17 6 9 1014.5 1013.7 0.0
02/07:00pm 24.6 20.6 2.7 24 10.7 SW 13 19 7 10 1014.5 1013.7 0.0
02/06:30pm 25.1 20.3 2.7 23 11.0 SW 17 22 9 12 1013.9 1013.2 0.0
02/06:00pm 25.9 21.0 2.2 21 11.6 SW 17 24 9 13 1013.5 1012.7 0.0
02/05:30pm 26.2 21.3 1.7 20 11.9 SW 17 22 9 12 1013.1 1012.3 0.0
02/05:00pm 26.9 22.6 1.3 19 12.4 SSW 13 17 7 9 1013.0 1012.2 0.0
02/04:30pm 26.6 23.5 1.1 19 12.3 S 7 17 4 9 1013.1 1012.3 0.0
02/04:00pm 26.8 23.3 1.5 19 12.3 SSW 9 17 5 9 1013.4 1012.6 0.0
02/03:30pm 26.5 23.6 1.2 19 12.2 N 6 13 3 7 1013.5 1012.7 0.0
02/03:00pm 26.5 23.2 2.3 21 11.9 S 9 13 5 7 1013.6 1012.8 0.0
02/02:30pm 26.1 23.2 2.6 21 11.6 NE 7 17 4 9 1013.8 1013.0 0.0
02/02:00pm 25.8 21.7 2.3 21 11.5 NE 13 26 7 14 1013.9 1013.2 0.0
02/01:30pm 24.3 20.6 2.5 24 10.6 ESE 11 19 6 10 1014.5 1013.7 0.0
02/01:00pm 24.1 20.7 3.8 26 10.1 ENE 11 19 6 10 1015.0 1014.2 0.0
02/12:30pm 23.6 19.2 4.5 29 9.6 ENE 17 24 9 13 1015.0 1014.2 0.0
02/12:00pm 22.8 18.5 5.2 32 8.9 ENE 17 24 9 13 1015.7 1014.9 0.0
02/11:30am 20.7 16.0 5.3 36 7.7 ENE 19 28 10 15 1016.3 1015.5 0.0
02/11:00am 19.9 15.3 5.7 39 7.1 ENE 19 24 10 13 1016.7 1015.9 0.0
02/10:30am 19.4 14.9 6.1 42 6.7 NE 19 28 10 15 1016.9 1016.1 0.0
02/10:00am 18.5 14.4 6.4 45 6.1 NE 17 26 9 14 1017.1 1016.4 0.0
02/09:30am 17.3 12.8 6.0 47 5.6 NE 19 32 10 17 1016.7 1015.9 0.0
02/09:00am 16.5 12.3 5.9 49 5.2 ENE 17 32 9 17 1016.5 1015.7 0.0
02/08:30am 15.8 12.6 6.7 54 4.5 E 13 20 7 11 1017.1 1016.4 0.0
02/08:00am 15.1 11.9 6.8 57 4.1 E 13 20 7 11 1016.6 1015.8 0.0
02/07:30am 14.8 11.9 6.7 58 4.0 E 11 17 6 9 1016.2 1015.4 0.0
02/07:00am 14.2 11.1 7.1 62 3.5 E 13 20 7 11 1016.1 1015.3 0.0
02/06:30am 14.2 11.1 7.4 63 3.4 E 13 20 7 11 1015.8 1015.0 0.0
02/06:00am 13.7 10.7 7.9 68 2.9 E 13 20 7 11 1015.5 1014.7 0.0
02/05:30am 13.4 10.1 8.2 71 2.6 ESE 15 24 8 13 1015.1 1014.3 0.0
02/05:00am 13.3 9.8 8.6 73 2.4 ESE 17 24 9 13 1014.9 1014.1 0.0
02/04:30am 13.1 10.0 9.0 76 2.1 ESE 15 28 8 15 1015.1 1014.3 0.0
02/04:00am 13.5 10.4 8.8 73 2.4 SE 15 28 8 15 1015.2 1014.4 0.0
02/03:30am 13.7 9.6 8.6 71 2.6 SE 20 32 11 17 1015.1 1014.3 0.0
02/03:00am 13.7 8.8 8.6 71 2.6 SE 24 35 13 19 1015.1 1014.3 0.0
02/02:30am 13.7 8.9 8.8 72 2.5 SE 24 41 13 22 1015.3 1014.5 0.0
02/02:00am 13.6 8.9 9.3 75 2.2 SE 24 41 13 22 1015.6 1014.8 0.0
02/01:30am 13.7 9.1 9.5 76 2.2 SE 24 35 13 19 1015.9 1015.1 0.0
02/01:00am 13.7 8.7 9.7 77 2.1 SE 26 39 14 21 1016.4 1015.6 0.0
02/12:30am 14.2 9.5 9.2 72 2.6 SE 24 39 13 21 1016.5 1015.7 0.0
02/12:00am 14.3 9.6 9.3 72 2.6 SE 24 32 13 17 1016.8 1016.0 0.0
 
Date/Time
CDT
Tmp

°C
App
Tmp
°C
Dew
Point
°C
Rel
Hum
%
Delta-T

°C
Wind Press
QNH
hPa
Press
MSL
hPa
Rain
since
9 am
mm
Dir
 
Spd
km/h
Gust
km/h
Spd
kts
Gust
kts
01/11:30pm 14.3 10.4 9.3 72 2.6 SE 20 32 11 17 1016.8 1016.0 0.0
01/11:00pm 14.6 9.8 9.0 69 2.9 SE 24 37 13 20 1016.6 1015.8 0.0
01/10:30pm 14.8 10.5 9.2 69 2.9 SE 22 32 12 17 1017.0 1016.3 0.0
01/10:00pm 15.1 12.4 9.1 67 3.1 SSE 13 20 7 11 1017.3 1016.6 0.0
01/09:30pm 15.7 13.1 9.2 65 3.4 SSE 13 20 7 11 1017.3 1016.6 0.0
01/09:00pm 16.5 14.2 9.0 61 3.9 S 11 20 6 11 1016.9 1016.1 0.0
01/08:30pm 17.3 14.2 8.9 57 4.4 SSE 15 22 8 12 1016.2 1015.4 0.0
01/08:00pm 18.4 15.6 8.7 53 5.1 SE 13 22 7 12 1015.6 1014.8 0.0
01/07:30pm 19.9 15.3 8.1 46 6.2 SE 22 30 12 16 1015.7 1014.9 0.0
01/07:00pm 21.1 16.2 7.0 40 7.3 SSE 22 32 12 17 1015.7 1014.9 0.0
01/06:30pm 21.6 17.0 5.6 35 8.1 SE 19 28 10 15 1015.7 1014.9 0.0
01/06:00pm 22.3 18.1 5.5 33 8.5 SE 17 24 9 13 1015.6 1014.8 0.0
01/05:30pm 22.9 18.3 5.7 32 8.8 SE 19 28 10 15 1015.4 1014.6 0.0
01/05:00pm 23.1 18.5 5.7 32 8.9 SSE 19 28 10 15 1015.6 1014.8 0.0
01/04:30pm 23.1 18.9 5.7 32 8.9 SSE 17 30 9 16 1015.5 1014.7 0.0
01/04:00pm 23.6 18.5 4.1 28 9.7 SSE 20 33 11 18 1015.3 1014.5 0.0
01/03:30pm 23.4 18.7 5.3 31 9.2 SSE 19 26 10 14 1015.5 1014.7 0.0
01/03:00pm 23.2 18.3 5.0 30 9.2 SSE 20 32 11 17 1015.8 1015.0 0.0
01/02:30pm 23.0 18.1 5.2 31 9.0 SE 20 39 11 21 1015.9 1015.1 0.0
01/02:00pm 23.1 18.8 5.4 31 9.0 SE 17 30 9 16 1016.0 1015.2 0.0
01/01:30pm 22.1 17.5 5.8 34 8.3 SE 19 30 10 16 1016.4 1015.6 0.0
01/01:00pm 22.3 17.8 6.1 35 8.3 S 19 32 10 17 1016.7 1015.9 0.0
01/12:30pm 21.7 17.6 6.3 36 7.9 SE 17 28 9 15 1017.1 1016.4 0.0
01/12:00pm 21.1 16.9 5.9 37 7.7 S 17 32 9 17 1017.2 1016.5 0.0
01/11:30am 20.3 16.2 6.3 40 7.1 SSE 17 30 9 16 1017.4 1016.7 0.0
01/11:00am 19.5 14.7 5.4 39 7.0 SSE 20 30 11 16 1017.4 1016.7 0.0
01/10:30am 18.7 14.6 6.4 44 6.2 SSE 17 26 9 14 1017.1 1016.4 0.0
01/10:00am 17.8 13.2 5.6 44 6.0 SSW 19 26 10 14 1017.0 1015.9 0.0
01/09:30am 17.0 12.2 5.8 47 5.5 SSW 20 28 11 15 1016.7 1015.6 0.0
01/09:00am 15.3 12.7 7.6 60 3.9 SSW 11 19 6 10 1016.5 1015.4 0.2
01/08:30am 15.0 13.1 7.7 61 3.7 SW 7 11 4 6 1016.1 1015.0 0.2
01/08:00am 14.3 12.3 7.3 63 3.5 WSW 7 11 4 6 1016.0 1014.9 0.2
01/07:30am 12.2 10.7 8.4 77 1.9 W 6 9 3 5 1015.5 1014.3 0.2
01/07:00am 11.4 9.4 7.1 75 2.1 SW 7 7 4 4 1014.9 1013.7 0.2
01/06:30am 13.1 11.1 7.0 66 3.0 SSW 7 11 4 6 1014.5 1013.3 0.2
01/06:00am 14.0 9.6 6.7 61 3.6 SSW 19 26 10 14 1014.3 1013.1 0.2
01/05:30am 14.4 11.2 8.5 67 3.0 S 15 20 8 11 1013.8 1012.7 0.2
01/05:00am 14.2 12.6 10.2 77 2.1 SSW 9 17 5 9 1013.4 1012.3 0.2
01/04:30am 13.2 12.2 10.9 86 1.2 SW 7 7 4 4 1012.9 1011.8 0.2
01/04:00am 12.7 11.8 10.8 88 1.0 SSW 6 7 3 4 1012.7 1011.6 0.2
01/03:30am 12.1 11.0 10.0 87 1.1 SW 6 9 3 5 1012.3 1011.1 0.2
01/03:00am 13.1 12.0 10.6 85 1.3 SSW 7 11 4 6 1012.1 1010.9 0.2
01/02:30am 13.7 12.2 10.7 82 1.6 SW 9 13 5 7 1012.1 1010.9 0.2
01/02:00am 14.2 12.3 10.4 78 2.0 SW 11 17 6 9 1012.2 1011.0 0.2
01/01:30am 14.5 12.6 10.4 76 2.2 SSW 11 13 6 7 1012.1 1010.9 0.2
01/01:00am 15.2 12.1 10.3 72 2.6 SW 17 20 9 11 1012.4 1011.2 0.2
01/12:30am 15.5 11.5 10.5 72 2.7 SW 22 33 12 18 1012.2 1011.0 0.2
01/12:00am 15.8 12.8 10.8 72 2.7 SSW 17 24 9 13 1012.1 1010.9 0.2
 
Date/Time
CDT
Tmp

°C
App
Tmp
°C
Dew
Point
°C
Rel
Hum
%
Delta-T

°C
Wind Press
QNH
hPa
Press
MSL
hPa
Rain
since
9 am
mm
Dir
 
Spd
km/h
Gust
km/h
Spd
kts
Gust
kts
28/11:30pm 16.7 13.7 10.6 67 3.3 SSW 17 28 9 15 1011.9 1010.7 0.2
28/11:00pm 18.2 14.7 12.3 68 3.3 SSW 22 32 12 17 1011.6 1010.4 0.2
28/10:30pm 19.4 17.2 14.3 72 3.0 SW 19 26 10 14 1011.3 1010.1 0.2
28/10:00pm 19.6 18.6 14.7 73 2.9 SW 13 20 7 11 1011.0 1009.8 0.2
28/09:30pm 19.4 17.4 15.0 75 2.6 WSW 19 26 10 14 1010.5 1009.3 0.2
28/09:00pm 19.6 18.1 15.2 76 2.6 WSW 17 28 9 15 1009.7 1008.6 0.2
28/08:30pm 20.2 17.8 15.4 74 2.9 WSW 22 33 12 18 1009.1 1007.9 0.2
28/08:00pm 21.9 19.2 15.6 67 3.8 WSW 24 33 13 18 1008.4 1007.2 0.2
28/07:30pm 22.7 20.3 14.3 59 5.0 WSW 20 28 11 15 1007.7 1006.5 0.2
28/07:00pm 24.1 20.4 12.6 48 6.7 WSW 24 35 13 19 1007.4 1006.2 0.2
28/06:30pm 24.9 21.0 13.2 48 6.9 WSW 26 39 14 21 1007.0 1005.8 0.2
28/06:00pm 26.0 21.7 13.2 45 7.6 WSW 28 41 15 22 1006.2 1005.1 0.2
28/05:30pm 27.1 23.0 11.4 37 9.1 SW 24 33 13 18 1005.6 1004.4 0.2
28/05:09pm 28.7 23.7 10.9 33 10.3 WSW 28 46 15 25 1005.9 1004.7 0.2
28/05:00pm 28.9 23.3 10.2 31 10.7 WSW 30 43 16 23 1005.9 1004.7 0.2
28/04:30pm 30.7 25.9 8.7 25 12.4 WSW 24 35 13 19 1005.1 1003.9 0.2
28/04:00pm 30.1 25.5 9.6 28 11.7 WSW 24 37 13 20 1004.9 1003.7 0.2
28/03:30pm 32.0 26.2 9.6 25 12.9 WSW 30 43 16 23 1004.7 1003.5 0.2
28/03:00pm 32.5 26.6 9.1 23 13.4 WSW 30 44 16 24 1004.7 1003.5 0.2
28/02:31pm 33.5 26.7 5.2 17 15.2 WSW 30 48 16 26 1004.5 1003.3 0.2
28/02:30pm 33.8 26.9 4.8 16 15.6 WSW 30 46 16 25 1004.5 1003.3 0.2
28/02:04pm 33.7 26.6 5.3 17 15.3 WSW 32 52 17 28 1004.6 1003.4 0.2
28/02:00pm 33.4 26.3 5.7 17 15.0 WSW 32 52 17 28 1004.6 1003.4 0.2
28/01:30pm 34.6 27.7 7.4 18 15.3 WSW 33 54 18 29 1004.6 1003.4 0.2
28/01:03pm 35.6 27.8 1.9 12 17.4 W 32 52 17 28 1004.5 1003.3 0.2
28/01:00pm 35.9 28.7 3.0 13 17.3 W 30 46 16 25 1004.5 1003.3 0.2
28/12:44pm 35.3 28.0 2.7 13 17.0 W 30 48 16 26 1004.6 1003.4 0.2
28/12:30pm 35.0 27.1 2.4 13 17.0 WNW 33 48 18 26 1004.8 1003.6 0.2
28/12:21pm 35.5 28.7 5.0 15 16.6 W 30 48 16 26 1005.0 1003.8 0.2
28/12:00pm 35.0 27.4 3.9 14 16.6 WNW 33 48 18 26 1005.4 1004.2 0.2
28/11:38am 34.2 26.3 2.4 13 16.4 W 33 52 18 28 1005.6 1004.4 0.2
28/11:30am 34.8 27.5 2.3 13 16.9 WNW 30 43 16 23 1005.5 1004.3 0.2
28/11:00am 33.6 26.0 4.0 15 15.7 WNW 33 52 18 28 1005.5 1004.3 0.0
28/10:58am 33.4 25.9 3.6 15 15.6 WNW 32 52 17 28 1005.5 1004.3 0.0
28/10:30am 31.6 26.4 5.3 19 14.1 NW 22 37 12 20 1005.6 1004.4 0.0
28/10:00am 30.1 27.7 11.3 31 11.0 N 15 24 8 13 1005.8 1004.6 0.0
28/09:30am 27.3 25.6 12.4 39 8.8 N 13 22 7 12 1005.9 1004.7 0.0
28/09:00am 25.4 24.9 13.9 49 6.9 NE 9 13 5 7 1006.1 1005.0 0.0
28/08:30am 24.5 23.9 13.5 50 6.5 NNE 9 13 5 7 1006.2 1005.1 0.0
28/08:00am 23.7 23.5 13.6 53 6.0 ENE 7 11 4 6 1006.0 1004.8 0.0
28/07:30am 22.8 21.3 13.0 54 5.7 ENE 13 19 7 10 1005.8 1004.6 0.0
28/07:00am 22.6 21.6 13.4 56 5.4 NE 11 17 6 9 1005.7 1004.5 0.0
28/06:30am 21.6 20.8 12.8 57 5.1 ENE 9 13 5 7 1005.6 1004.4 0.0
28/06:00am 21.5 20.7 12.9 58 5.0 NE 9 17 5 9 1005.6 1004.4 0.0
28/05:30am 21.8 20.1 12.6 56 5.3 NE 13 20 7 11 1005.5 1004.3 0.0
28/05:00am 22.2 20.5 12.3 53 5.7 ENE 13 19 7 10 1005.4 1004.2 0.0
28/04:30am 22.7 20.4 11.9 50 6.2 ENE 15 20 8 11 1005.5 1004.3 0.0
28/04:00am 22.8 21.3 11.8 50 6.3 E 11 17 6 9 1005.5 1004.3 0.0
28/03:30am 22.8 20.7 11.1 47 6.6 E 13 19 7 10 1006.0 1004.8 0.0
28/03:00am 22.7 20.7 11.6 49 6.3 E 13 22 7 12 1006.3 1005.2 0.0
28/02:30am 22.3 20.4 11.8 51 6.0 E 13 20 7 11 1006.8 1005.6 0.0
28/02:00am 22.3 18.6 11.6 50 6.1 ESE 22 32 12 17 1006.8 1005.6 0.0
28/01:30am 21.6 18.3 11.7 53 5.6 ESE 20 30 11 16 1008.0 1006.8 0.0
28/01:00am 21.7 18.7 11.8 53 5.6 ESE 19 26 10 14 1008.7 1007.5 0.0
28/12:30am 21.6 18.6 12.1 54 5.4 ESE 19 30 10 16 1008.7 1007.5 0.0
28/12:00am 22.0 18.9 12.2 53 5.6 SE 20 33 11 18 1009.0 1007.8 0.0
 
Date/Time
CDT
Tmp

°C
App
Tmp
°C
Dew
Point
°C
Rel
Hum
%
Delta-T

°C
Wind Press
QNH
hPa
Press
MSL
hPa
Rain
since
9 am
mm
Dir
 
Spd
km/h
Gust
km/h
Spd
kts
Gust
kts
27/11:30pm 22.1 19.1 11.9 52 5.8 SE 19 28 10 15 1009.7 1008.6 0.0
27/11:00pm 21.5 19.5 12.8 57 5.0 ESE 15 26 8 14 1010.1 1009.0 0.0
27/10:30pm 21.5 20.4 14.2 63 4.3 ESE 13 22 7 12 1010.6 1009.4 0.0
27/10:00pm 23.5 22.6 13.7 54 5.8 N 11 15 6 8 1011.0 1009.8 0.0

Latest Capital City Observations: Canberra | Sydney | Melbourne | Brisbane | Adelaide | Perth | Hobart | Darwin

Other Formats:

Comma delimited format used in spreadsheet applications
http://www.bom.gov.au/fwo/IDS60901/IDS60901.94681.axf

JavaScript Object Notation format (JSON) in row-major order
http://www.bom.gov.au/fwo/IDS60901/IDS60901.94681.json